DAL414 KMIA-MYNN
Flight info
| Callsign | DAL414 |
|---|---|
| Flight time | 0h 28m |
| Altitude | 21000 |
| Route | KLADA2 RAJAY DCT |
| Aircraft | A321/M-SDE3FGHIRWY/LB1 |
Departure
| Time | 2026-05-06 02:37 |
|---|---|
| Airport | Miami International Airport (KMIA) |
Arrival
| Time | 2026-05-06 03:06 |
|---|---|
| Airport | Lynden Pindling International Airport (MYNN) |
| Time | Latitude | Longitude | Altitude | Speed | Heading |
|---|---|---|---|---|---|
| 2026-05-06 02:13 | 25.79075 | -80.27616 | 22 ft | 0 kts | 267° |
| 2026-05-06 02:24 | 25.79076 | -80.27614 | 22 ft | 2 kts | 267° |
| 2026-05-06 02:25 | 25.79078 | -80.27585 | 22 ft | 4 kts | 262° |
| 2026-05-06 02:25 | 25.79082 | -80.27556 | 22 ft | 4 kts | 254° |
| 2026-05-06 02:25 | 25.79092 | -80.27528 | 20 ft | 4 kts | 232° |
| 2026-05-06 02:25 | 25.79109 | -80.27515 | 23 ft | 2 kts | 178° |
| 2026-05-06 02:27 | 25.79107 | -80.27515 | 23 ft | 3 kts | 177° |
| 2026-05-06 02:27 | 25.79035 | -80.27511 | 20 ft | 15 kts | 177° |
| 2026-05-06 02:27 | 25.78971 | -80.27546 | 22 ft | 12 kts | 242° |
| 2026-05-06 02:28 | 25.78947 | -80.27684 | 22 ft | 21 kts | 265° |
| 2026-05-06 02:28 | 25.78940 | -80.27836 | 24 ft | 17 kts | 269° |
| 2026-05-06 02:28 | 25.78949 | -80.27947 | 27 ft | 14 kts | 294° |
| 2026-05-06 02:28 | 25.79013 | -80.28076 | 27 ft | 25 kts | 298° |
| 2026-05-06 02:29 | 25.79099 | -80.28243 | 27 ft | 22 kts | 301° |
| 2026-05-06 02:29 | 25.79171 | -80.28373 | 23 ft | 20 kts | 313° |
| 2026-05-06 02:29 | 25.79249 | -80.28467 | 22 ft | 15 kts | 300° |
| 2026-05-06 02:29 | 25.79304 | -80.28573 | 21 ft | 17 kts | 300° |
| 2026-05-06 02:30 | 25.79364 | -80.28689 | 18 ft | 16 kts | 298° |
| 2026-05-06 02:30 | 25.79420 | -80.28798 | 19 ft | 16 kts | 300° |
| 2026-05-06 02:30 | 25.79471 | -80.28898 | 20 ft | 14 kts | 298° |
| 2026-05-06 02:30 | 25.79519 | -80.28994 | 20 ft | 14 kts | 300° |
| 2026-05-06 02:31 | 25.79566 | -80.29086 | 22 ft | 13 kts | 300° |
| 2026-05-06 02:31 | 25.79594 | -80.29139 | 23 ft | 11 kts | 300° |
| 2026-05-06 02:31 | 25.79630 | -80.29211 | 24 ft | 11 kts | 300° |
| 2026-05-06 02:31 | 25.79668 | -80.29285 | 23 ft | 12 kts | 299° |
| 2026-05-06 02:32 | 25.79723 | -80.29391 | 22 ft | 11 kts | 300° |
| 2026-05-06 02:32 | 25.79761 | -80.29465 | 22 ft | 11 kts | 300° |
| 2026-05-06 02:32 | 25.79787 | -80.29516 | 21 ft | 11 kts | 299° |
| 2026-05-06 02:32 | 25.79839 | -80.29623 | 18 ft | 6 kts | 295° |
| 2026-05-06 02:33 | 25.79852 | -80.29652 | 17 ft | 7 kts | 297° |
| 2026-05-06 02:33 | 25.79868 | -80.29683 | 17 ft | 7 kts | 301° |
| 2026-05-06 02:34 | 25.79908 | -80.29760 | 17 ft | 1 kts | 296° |
| 2026-05-06 02:34 | 25.79911 | -80.29767 | 17 ft | 0 kts | 296° |
| 2026-05-06 02:34 | 25.79912 | -80.29769 | 17 ft | 1 kts | 296° |
| 2026-05-06 02:34 | 25.79913 | -80.29771 | 17 ft | 0 kts | 296° |
| 2026-05-06 02:35 | 25.79914 | -80.29773 | 17 ft | 0 kts | 296° |
| 2026-05-06 02:35 | 25.79914 | -80.29774 | 17 ft | 0 kts | 296° |
| 2026-05-06 02:35 | 25.79920 | -80.29788 | 17 ft | 7 kts | 294° |
| 2026-05-06 02:36 | 25.79950 | -80.29871 | 16 ft | 13 kts | 292° |
| 2026-05-06 02:36 | 25.79978 | -80.29968 | 17 ft | 15 kts | 285° |
| 2026-05-06 02:36 | 25.80006 | -80.30079 | 17 ft | 14 kts | 286° |
| 2026-05-06 02:36 | 25.80065 | -80.30098 | 18 ft | 11 kts | 56° |
| 2026-05-06 02:37 | 25.80077 | -80.29984 | 16 ft | 24 kts | 87° |
| 2026-05-06 02:37 | 25.80100 | -80.29450 | 20 ft | 122 kts | 87° |
| 2026-05-06 02:37 | 25.80148 | -80.28249 | 425 ft | 174 kts | 86° |
| 2026-05-06 02:37 | 25.80200 | -80.26812 | 1283 ft | 194 kts | 87° |
| 2026-05-06 02:38 | 25.80156 | -80.25300 | 2336 ft | 201 kts | 99° |
| 2026-05-06 02:38 | 25.79702 | -80.23840 | 2847 ft | 208 kts | 114° |
| 2026-05-06 02:38 | 25.79014 | -80.22367 | 3318 ft | 222 kts | 117° |
| 2026-05-06 02:38 | 25.78230 | -80.20775 | 3732 ft | 249 kts | 118° |
| 2026-05-06 02:39 | 25.77366 | -80.19017 | 4456 ft | 267 kts | 118° |
| 2026-05-06 02:39 | 25.76467 | -80.17168 | 5383 ft | 276 kts | 119° |
| 2026-05-06 02:39 | 25.75522 | -80.15285 | 6373 ft | 282 kts | 120° |
| 2026-05-06 02:39 | 25.74549 | -80.13365 | 7268 ft | 290 kts | 120° |
| 2026-05-06 02:40 | 25.73560 | -80.11387 | 8142 ft | 297 kts | 117° |
| 2026-05-06 02:40 | 25.72770 | -80.09244 | 9006 ft | 303 kts | 111° |
| 2026-05-06 02:40 | 25.72025 | -80.07029 | 9857 ft | 310 kts | 110° |
| 2026-05-06 02:40 | 25.71263 | -80.04737 | 10363 ft | 328 kts | 110° |
| 2026-05-06 02:41 | 25.70457 | -80.02288 | 10806 ft | 345 kts | 110° |
| 2026-05-06 02:41 | 25.69628 | -79.99767 | 11529 ft | 351 kts | 110° |
| 2026-05-06 02:41 | 25.68783 | -79.97209 | 12334 ft | 356 kts | 110° |
| 2026-05-06 02:41 | 25.67937 | -79.94655 | 13149 ft | 360 kts | 110° |
| 2026-05-06 02:42 | 25.67070 | -79.92039 | 13954 ft | 364 kts | 110° |
| 2026-05-06 02:42 | 25.66189 | -79.89391 | 14662 ft | 368 kts | 110° |
| 2026-05-06 02:42 | 25.65295 | -79.86712 | 15368 ft | 373 kts | 110° |
| 2026-05-06 02:42 | 25.64392 | -79.83996 | 16056 ft | 378 kts | 110° |
| 2026-05-06 02:43 | 25.63481 | -79.81249 | 16759 ft | 382 kts | 110° |
| 2026-05-06 02:43 | 25.62559 | -79.78467 | 17451 ft | 387 kts | 110° |
| 2026-05-06 02:43 | 25.61620 | -79.75648 | 18140 ft | 392 kts | 110° |
| 2026-05-06 02:43 | 25.60667 | -79.72793 | 18744 ft | 397 kts | 110° |
| 2026-05-06 02:44 | 25.59705 | -79.69903 | 19309 ft | 403 kts | 109° |
| 2026-05-06 02:44 | 25.58813 | -79.66942 | 19874 ft | 408 kts | 106° |
| 2026-05-06 02:44 | 25.58007 | -79.63914 | 20390 ft | 412 kts | 104° |
| 2026-05-06 02:44 | 25.57245 | -79.60835 | 20880 ft | 417 kts | 104° |
| 2026-05-06 02:45 | 25.56503 | -79.57763 | 21032 ft | 419 kts | 103° |
| 2026-05-06 02:45 | 25.55730 | -79.54590 | 21086 ft | 436 kts | 104° |
| 2026-05-06 02:45 | 25.54902 | -79.51285 | 21078 ft | 455 kts | 104° |
| 2026-05-06 02:45 | 25.54020 | -79.47857 | 21078 ft | 471 kts | 105° |
| 2026-05-06 02:46 | 25.53098 | -79.44316 | 21081 ft | 486 kts | 105° |
| 2026-05-06 02:46 | 25.52144 | -79.40685 | 21070 ft | 495 kts | 105° |
| 2026-05-06 02:46 | 25.51179 | -79.37019 | 21084 ft | 497 kts | 105° |
| 2026-05-06 02:46 | 25.50213 | -79.33344 | 21085 ft | 497 kts | 105° |
| 2026-05-06 02:47 | 25.49248 | -79.29667 | 21085 ft | 497 kts | 105° |
| 2026-05-06 02:47 | 25.48287 | -79.25989 | 21077 ft | 497 kts | 105° |
| 2026-05-06 02:47 | 25.47328 | -79.22311 | 21066 ft | 497 kts | 105° |
| 2026-05-06 02:47 | 25.46381 | -79.18688 | 21084 ft | 497 kts | 105° |
| 2026-05-06 02:48 | 25.45416 | -79.15009 | 21082 ft | 497 kts | 105° |
| 2026-05-06 02:48 | 25.44451 | -79.11337 | 21071 ft | 498 kts | 105° |
| 2026-05-06 02:48 | 25.43485 | -79.07661 | 21080 ft | 498 kts | 105° |
| 2026-05-06 02:48 | 25.42517 | -79.03985 | 21086 ft | 498 kts | 105° |
| 2026-05-06 02:49 | 25.41551 | -79.00310 | 21084 ft | 498 kts | 105° |
| 2026-05-06 02:49 | 25.40585 | -78.96636 | 21075 ft | 497 kts | 105° |
| 2026-05-06 02:49 | 25.39617 | -78.92965 | 21082 ft | 497 kts | 105° |
| 2026-05-06 02:49 | 25.38649 | -78.89296 | 21078 ft | 497 kts | 105° |
| 2026-05-06 02:50 | 25.37680 | -78.85628 | 21080 ft | 497 kts | 105° |
| 2026-05-06 02:50 | 25.36710 | -78.81970 | 21069 ft | 489 kts | 105° |
| 2026-05-06 02:50 | 25.35785 | -78.78497 | 20966 ft | 467 kts | 105° |
| 2026-05-06 02:50 | 25.34883 | -78.75115 | 20721 ft | 450 kts | 105° |
| 2026-05-06 02:51 | 25.34015 | -78.71855 | 20493 ft | 434 kts | 105° |
| 2026-05-06 02:51 | 25.33176 | -78.68706 | 20262 ft | 420 kts | 105° |
| 2026-05-06 02:51 | 25.32363 | -78.65660 | 20023 ft | 408 kts | 105° |
| 2026-05-06 02:51 | 25.31571 | -78.62685 | 19794 ft | 401 kts | 105° |
| 2026-05-06 02:52 | 25.30788 | -78.59744 | 19560 ft | 397 kts | 105° |
| 2026-05-06 02:52 | 25.30011 | -78.56824 | 19329 ft | 395 kts | 105° |
| 2026-05-06 02:52 | 25.29239 | -78.53931 | 19002 ft | 390 kts | 105° |
| 2026-05-06 02:52 | 25.28475 | -78.51062 | 18490 ft | 389 kts | 105° |
| 2026-05-06 02:53 | 25.27718 | -78.48197 | 17899 ft | 388 kts | 103° |
| 2026-05-06 02:53 | 25.27294 | -78.45275 | 17392 ft | 383 kts | 91° |
| 2026-05-06 02:53 | 25.27392 | -78.42365 | 16921 ft | 376 kts | 81° |
| 2026-05-06 02:53 | 25.27719 | -78.39550 | 16463 ft | 373 kts | 81° |
| 2026-05-06 02:54 | 25.28044 | -78.36723 | 16007 ft | 369 kts | 81° |
| 2026-05-06 02:54 | 25.28362 | -78.33920 | 15552 ft | 366 kts | 81° |
| 2026-05-06 02:54 | 25.28677 | -78.31138 | 15102 ft | 364 kts | 81° |
| 2026-05-06 02:54 | 25.28988 | -78.28373 | 14651 ft | 362 kts | 81° |
| 2026-05-06 02:55 | 25.29298 | -78.25627 | 14207 ft | 360 kts | 82° |
| 2026-05-06 02:55 | 25.29604 | -78.22891 | 13732 ft | 358 kts | 82° |
| 2026-05-06 02:55 | 25.29906 | -78.20169 | 13258 ft | 355 kts | 82° |
| 2026-05-06 02:55 | 25.30208 | -78.17471 | 12801 ft | 352 kts | 82° |
| 2026-05-06 02:56 | 25.30208 | -78.14783 | 12347 ft | 350 kts | 99° |
| 2026-05-06 02:56 | 25.29678 | -78.12169 | 11910 ft | 348 kts | 104° |
| 2026-05-06 02:56 | 25.29118 | -78.09578 | 11479 ft | 346 kts | 104° |
| 2026-05-06 02:56 | 25.28559 | -78.07004 | 11050 ft | 344 kts | 104° |
| 2026-05-06 02:57 | 25.28002 | -78.04443 | 10626 ft | 342 kts | 104° |
| 2026-05-06 02:57 | 25.27450 | -78.01901 | 10215 ft | 339 kts | 104° |
| 2026-05-06 02:57 | 25.26912 | -77.99413 | 9788 ft | 336 kts | 104° |
| 2026-05-06 02:57 | 25.26375 | -77.96927 | 9427 ft | 326 kts | 104° |
| 2026-05-06 02:58 | 25.25860 | -77.94542 | 9269 ft | 314 kts | 104° |
| 2026-05-06 02:58 | 25.25352 | -77.92197 | 8713 ft | 313 kts | 104° |
| 2026-05-06 02:58 | 25.24852 | -77.89877 | 8169 ft | 307 kts | 104° |
| 2026-05-06 02:58 | 25.24366 | -77.87623 | 7600 ft | 301 kts | 104° |
| 2026-05-06 02:59 | 25.23880 | -77.85377 | 6990 ft | 299 kts | 104° |
| 2026-05-06 02:59 | 25.23400 | -77.83162 | 6437 ft | 294 kts | 103° |
| 2026-05-06 02:59 | 25.22927 | -77.80989 | 5864 ft | 288 kts | 104° |
| 2026-05-06 02:59 | 25.22472 | -77.78890 | 5339 ft | 273 kts | 104° |
| 2026-05-06 03:00 | 25.22034 | -77.76870 | 4841 ft | 272 kts | 104° |
| 2026-05-06 03:00 | 25.21592 | -77.74838 | 4466 ft | 269 kts | 104° |
| 2026-05-06 03:00 | 25.21167 | -77.72884 | 4405 ft | 255 kts | 104° |
| 2026-05-06 03:00 | 25.20769 | -77.71049 | 4359 ft | 236 kts | 104° |
| 2026-05-06 03:01 | 25.20404 | -77.69368 | 4251 ft | 221 kts | 104° |
| 2026-05-06 03:01 | 25.20054 | -77.67762 | 4153 ft | 211 kts | 104° |
| 2026-05-06 03:01 | 25.19710 | -77.66198 | 4064 ft | 209 kts | 104° |
| 2026-05-06 03:01 | 25.19369 | -77.64644 | 3975 ft | 208 kts | 104° |
| 2026-05-06 03:02 | 25.18944 | -77.63127 | 3880 ft | 206 kts | 118° |
| 2026-05-06 03:02 | 25.18070 | -77.61884 | 3672 ft | 206 kts | 136° |
| 2026-05-06 03:02 | 25.17045 | -77.60755 | 3274 ft | 210 kts | 137° |
| 2026-05-06 03:02 | 25.16017 | -77.59620 | 2955 ft | 208 kts | 136° |
| 2026-05-06 03:03 | 25.15004 | -77.58494 | 2676 ft | 205 kts | 136° |
| 2026-05-06 03:03 | 25.14023 | -77.57401 | 2427 ft | 195 kts | 136° |
| 2026-05-06 03:03 | 25.13099 | -77.56371 | 2162 ft | 184 kts | 136° |
| 2026-05-06 03:03 | 25.12216 | -77.55390 | 1935 ft | 181 kts | 135° |
| 2026-05-06 03:04 | 25.11358 | -77.54434 | 1719 ft | 168 kts | 135° |
| 2026-05-06 03:04 | 25.10553 | -77.53539 | 1487 ft | 162 kts | 136° |
| 2026-05-06 03:04 | 25.09767 | -77.52664 | 1283 ft | 160 kts | 136° |
| 2026-05-06 03:04 | 25.08989 | -77.51798 | 1076 ft | 158 kts | 136° |
| 2026-05-06 03:05 | 25.08243 | -77.50969 | 887 ft | 148 kts | 135° |
| 2026-05-06 03:05 | 25.07528 | -77.50181 | 704 ft | 143 kts | 135° |
| 2026-05-06 03:05 | 25.06835 | -77.49407 | 536 ft | 140 kts | 135° |
| 2026-05-06 03:05 | 25.06154 | -77.48654 | 332 ft | 138 kts | 135° |
| 2026-05-06 03:06 | 25.05487 | -77.47909 | 140 ft | 135 kts | 135° |
| 2026-05-06 03:06 | 25.04834 | -77.47185 | 17 ft | 127 kts | 134° |
| 2026-05-06 03:06 | 25.04347 | -77.46638 | 14 ft | 41 kts | 135° |
| 2026-05-06 03:06 | 25.04209 | -77.46468 | 11 ft | 32 kts | 128° |
| 2026-05-06 03:07 | 25.04112 | -77.46253 | 13 ft | 19 kts | 107° |
| 2026-05-06 03:07 | 25.04170 | -77.46185 | 12 ft | 15 kts | 335° |
| 2026-05-06 03:07 | 25.04265 | -77.46284 | 12 ft | 23 kts | 315° |
| 2026-05-06 03:07 | 25.04391 | -77.46426 | 12 ft | 28 kts | 313° |
| 2026-05-06 03:08 | 25.04529 | -77.46580 | 12 ft | 29 kts | 315° |
| 2026-05-06 03:08 | 25.04673 | -77.46739 | 14 ft | 30 kts | 314° |
| 2026-05-06 03:08 | 25.04807 | -77.46889 | 13 ft | 23 kts | 314° |
| 2026-05-06 03:08 | 25.04912 | -77.46933 | 13 ft | 12 kts | 21° |
| 2026-05-06 03:09 | 25.04980 | -77.46879 | 12 ft | 13 kts | 63° |
| 2026-05-06 03:09 | 25.05022 | -77.46799 | 12 ft | 10 kts | 32° |
| 2026-05-06 03:09 | 25.05075 | -77.46802 | 12 ft | 3 kts | 347° |
| 2026-05-06 03:09 | 25.05076 | -77.46803 | 12 ft | 0 kts | 347° |